Time;durP1;ratioP1;P1;durP2;ratioP2;P2;SDS_P1;SDS_P2;PMS_P1;PMS_P2;Temp;Humidity;BMP_temperature;BMP_pressure;BME280_temperature;BME280_humidity;BME280_pressure;Samples;Min_cycle;Max_cycle;Signal;HPM_P1;HPM_P2
2022/06/30 00:02:11;;;;;;;18.20;7.73;;;;;;;34.13;43.96;101160.22;6159666;23;20693;-76
2022/06/30 00:04:37;;;;;;;10.90;6.93;;;;;;;33.58;45.17;101148.44;6159585;23;20423;-76
2022/06/30 00:07:03;;;;;;;12.30;6.90;;;;;;;33.59;45.40;101145.47;6159691;23;20376;-76
2022/06/30 00:09:29;;;;;;;13.90;7.40;;;;;;;33.78;44.93;101151.13;6159486;23;20720;-76
2022/06/30 00:11:56;;;;;;;15.63;7.60;;;;;;;33.88;44.73;101140.34;6159515;23;20420;-76
2022/06/30 00:14:22;;;;;;;19.03;6.83;;;;;;;34.04;44.47;101134.97;6186490;23;20361;-76
2022/06/30 00:16:48;;;;;;;20.10;7.40;;;;;;;34.04;44.25;101126.88;6159505;23;20456;-74
2022/06/30 00:19:14;;;;;;;13.77;6.70;;;;;;;34.21;44.22;101128.19;6160452;23;20345;-74
2022/06/30 00:21:41;;;;;;;12.13;6.90;;;;;;;33.96;44.66;101111.31;6134957;23;20372;-74
2022/06/30 00:24:07;;;;;;;14.97;6.50;;;;;;;34.32;43.87;101117.41;6134970;23;20408;-74
2022/06/30 00:26:33;;;;;;;10.80;7.37;;;;;;;34.35;43.53;101112.25;6159535;23;20702;-75
2022/06/30 00:28:59;;;;;;;25.03;8.20;;;;;;;34.20;44.42;101107.72;6159425;23;20531;-74
2022/06/30 00:31:25;;;;;;;16.73;7.93;;;;;;;34.21;43.90;101103.16;6159333;23;20559;-74
2022/06/30 00:33:51;;;;;;;11.53;5.73;;;;;;;34.43;43.91;101100.91;6134785;23;20399;-74
2022/06/30 00:36:17;;;;;;;11.17;6.53;;;;;;;33.69;45.34;101090.84;6159286;23;20404;-74
2022/06/30 00:38:44;;;;;;;13.23;7.77;;;;;;;33.69;45.53;101090.84;6186230;23;20813;-74
2022/06/30 00:41:10;;;;;;;15.10;7.53;;;;;;;33.68;45.80;101081.16;6185621;23;20368;-74
2022/06/30 00:43:46;;;;;;;13.40;7.67;;;;;;;33.41;46.05;101076.91;6159277;23;20411;-74
2022/06/30 00:46:13;;;;;;;13.53;7.43;;;;;;;33.53;46.16;101073.94;6159256;23;20385;-74
2022/06/30 00:48:40;;;;;;;17.03;6.10;;;;;;;33.54;46.34;101066.66;6186185;23;20360;-74
2022/06/30 00:51:07;;;;;;;10.00;6.07;;;;;;;33.63;45.88;101062.34;6159046;23;20447;-73
2022/06/30 00:53:36;;;;;;;10.33;6.13;;;;;;;33.29;46.67;101057.50;6159260;23;20376;-74
2022/06/30 00:56:07;;;;;;;18.43;7.43;;;;;;;33.73;45.89;101048.06;6159043;23;20960;-75
2022/06/30 00:58:41;;;;;;;10.60;6.83;;;;;;;33.34;46.27;101043.25;6128256;23;20812;-74
2022/06/30 01:01:10;;;;;;;18.60;7.10;;;;;;;33.30;46.81;101037.59;6159179;23;20388;-74
2022/06/30 01:03:37;;;;;;;11.83;6.30;;;;;;;33.32;46.73;101038.13;6159102;23;20412;-74
2022/06/30 01:06:05;;;;;;;12.30;7.50;;;;;;;33.32;46.97;101027.38;6159169;23;20848;-76
2022/06/30 01:08:32;;;;;;;9.87;5.97;;;;;;;33.48;46.39;101024.72;6159053;23;20467;-77
2022/06/30 01:13:46;;;;;;;10.10;6.53;;;;;;;34.05;44.90;101020.81;6185440;23;20440;-76
2022/06/30 01:16:13;;;;;;;14.03;7.63;;;;;;;33.90;45.44;101018.97;6134576;23;20400;-76
2022/06/30 01:18:39;;;;;;;13.47;6.70;;;;;;;33.83;45.27;101013.09;6134558;23;20388;-76
2022/06/30 01:21:06;;;;;;;17.00;6.67;;;;;;;33.63;45.95;101003.16;6134578;23;20376;-76
2022/06/30 01:23:32;;;;;;;12.63;6.70;;;;;;;33.68;45.79;100993.19;6134620;23;20372;-76
2022/06/30 01:25:58;;;;;;;10.43;6.60;;;;;;;33.81;45.61;100986.44;6185748;23;20352;-76
2022/06/30 01:28:24;;;;;;;10.87;6.50;;;;;;;34.06;44.81;100988.25;6158887;23;20899;-76
2022/06/30 01:30:50;;;;;;;11.47;6.90;;;;;;;34.09;44.97;100979.63;6158653;23;20462;-74
2022/06/30 01:33:17;;;;;;;12.30;7.27;;;;;;;33.83;45.60;100976.22;6185904;23;20371;-75
2022/06/30 01:35:43;;;;;;;15.67;7.40;;;;;;;34.12;44.68;100975.56;6158615;23;20504;-75
2022/06/30 01:38:09;;;;;;;12.50;6.30;;;;;;;34.03;45.40;100975.34;6134232;23;20719;-75
2022/06/30 01:40:36;;;;;;;17.80;6.80;;;;;;;34.00;44.93;100977.78;6185589;23;20356;-75
2022/06/30 01:43:05;;;;;;;14.57;7.50;;;;;;;33.89;44.92;100977.81;6158630;23;20368;-74
2022/06/30 01:45:32;;;;;;;14.07;7.60;;;;;;;33.87;45.60;100979.16;6158815;23;20704;-74
2022/06/30 01:47:58;;;;;;;14.20;7.50;;;;;;;33.98;45.06;100974.56;6185455;23;20364;-74
2022/06/30 01:50:27;;;;;;;10.53;6.70;;;;;;;34.11;44.93;100980.16;6158484;23;20465;-76
2022/06/30 01:52:54;;;;;;;11.60;6.77;;;;;;;34.08;45.14;100978.03;6184950;23;20409;-74
2022/06/30 01:55:20;;;;;;;12.83;5.73;;;;;;;33.94;45.27;100976.97;6185389;23;20701;-74
2022/06/30 01:57:46;;;;;;;13.00;7.47;;;;;;;34.09;45.13;100974.25;6184960;23;20428;-76
2022/06/30 02:00:15;;;;;;;19.60;7.53;;;;;;;34.16;44.68;100968.56;6158617;23;20848;-75
2022/06/30 02:02:42;;;;;;;13.17;6.07;;;;;;;34.18;44.71;100961.00;6158635;23;20418;-74
2022/06/30 02:05:09;;;;;;;13.73;6.83;;;;;;;34.33;44.96;100954.72;6158625;23;20380;-74
2022/06/30 02:07:36;;;;;;;15.13;7.57;;;;;;;34.42;44.44;100961.97;6158467;23;20459;-76
2022/06/30 02:10:04;;;;;;;13.63;6.80;;;;;;;34.53;44.56;100948.44;6184929;23;20879;-76
2022/06/30 02:12:45;;;;;;;14.03;6.03;;;;;;;34.63;44.16;100946.47;6158466;23;20459;-76
2022/06/30 02:15:23;;;;;;;13.13;7.80;;;;;;;34.68;43.67;100938.34;6158644;23;20853;-75
2022/06/30 02:17:52;;;;;;;14.83;6.80;;;;;;;34.72;43.73;100939.38;6134061;23;20437;-74
2022/06/30 02:20:23;;;;;;;12.40;6.53;;;;;;;34.73;43.61;100940.19;6158554;23;20368;-75
2022/06/30 02:22:53;;;;;;;16.63;7.03;;;;;;;34.82;43.24;100927.72;6111178;23;20403;-75
2022/06/30 02:25:19;;;;;;;10.70;6.30;;;;;;;34.88;43.08;100932.00;6158477;23;20407;-75
2022/06/30 02:27:46;;;;;;;12.37;7.07;;;;;;;34.89;43.54;100930.91;6158518;23;20388;-75
2022/06/30 02:30:12;;;;;;;16.53;8.07;;;;;;;34.84;43.63;100930.94;6158412;23;20376;-74
2022/06/30 02:32:39;;;;;;;16.00;6.17;;;;;;;34.88;43.27;100936.56;6133876;23;20427;-77
2022/06/30 02:35:05;;;;;;;13.00;6.83;;;;;;;34.87;43.41;100933.09;6185212;23;20356;-76
2022/06/30 02:37:31;;;;;;;12.00;6.07;;;;;;;34.92;42.98;100946.50;6158505;23;20411;-76
2022/06/30 02:39:58;;;;;;;9.80;5.57;;;;;;;34.93;43.21;100950.84;6158288;23;20384;-75
2022/06/30 02:42:24;;;;;;;16.57;5.17;;;;;;;34.98;43.05;100948.09;6185099;23;20364;-75
2022/06/30 02:44:50;;;;;;;14.70;6.90;;;;;;;34.95;43.50;100945.16;6158417;23;20387;-75
2022/06/30 02:47:16;;;;;;;11.83;6.80;;;;;;;34.91;43.03;100944.09;6158938;23;20380;-75
2022/06/30 02:49:42;;;;;;;10.53;6.03;;;;;;;34.86;43.04;100950.31;6187239;23;20410;-75
2022/06/30 02:52:08;;;;;;;14.07;6.37;;;;;;;34.77;43.18;100951.22;6135745;23;20442;-75
2022/06/30 02:54:35;;;;;;;14.77;6.23;;;;;;;34.67;43.73;100952.09;6160164;23;20395;-75
2022/06/30 02:57:01;;;;;;;11.67;7.20;;;;;;;34.65;43.50;100965.03;6160086;23;20542;-75
2022/06/30 02:59:27;;;;;;;11.17;6.33;;;;;;;34.60;43.80;100960.50;6160277;23;20739;-75
2022/06/30 03:01:53;;;;;;;13.33;7.83;;;;;;;34.59;43.71;100971.56;6160327;23;20408;-75
2022/06/30 03:04:21;;;;;;;14.97;5.30;;;;;;;34.67;43.64;100954.78;6160295;23;20402;-75
2022/06/30 03:06:47;;;;;;;20.03;8.17;;;;;;;34.77;43.66;100962.00;6136088;23;20444;-75
2022/06/30 03:09:13;;;;;;;15.00;10.20;;;;;;;34.77;43.40;100957.41;6160263;23;20415;-75
2022/06/30 03:11:40;;;;;;;15.67;9.73;;;;;;;34.79;44.01;100951.72;6186838;23;20408;-75
2022/06/30 03:14:06;;;;;;;16.07;8.13;;;;;;;34.88;43.25;100950.84;6187119;23;20364;-75
2022/06/30 03:16:32;;;;;;;16.23;8.80;;;;;;;34.98;43.07;100958.88;6160152;23;20419;-74
2022/06/30 03:18:58;;;;;;;21.40;10.80;;;;;;;34.98;43.11;100958.06;6160027;23;20384;-75
2022/06/30 03:21:24;;;;;;;22.77;8.57;;;;;;;34.89;43.54;100959.75;6187062;23;20905;-75
2022/06/30 03:23:50;;;;;;;25.87;9.30;;;;;;;34.92;43.35;100962.69;6186581;23;20400;-75
2022/06/30 03:26:16;;;;;;;16.30;8.10;;;;;;;34.95;43.30;100964.03;6160039;23;20732;-75
2022/06/30 03:28:43;;;;;;;24.20;8.57;;;;;;;34.96;43.42;100968.34;6160077;23;20388;-74
2022/06/30 03:31:09;;;;;;;14.10;7.93;;;;;;;34.89;43.39;100959.75;6186422;23;20503;-75
2022/06/30 03:33:37;;;;;;;16.87;10.77;;;;;;;34.91;43.50;100961.06;6160039;23;20474;-74
2022/06/30 03:36:03;;;;;;;23.23;15.30;;;;;;;35.05;43.20;100961.25;6186778;23;20833;-74
2022/06/30 03:38:29;;;;;;;19.73;10.37;;;;;;;35.08;43.13;100955.28;6159813;23;20502;-74
2022/06/30 03:40:55;;;;;;;17.13;9.30;;;;;;;35.05;43.64;100957.72;6186830;23;20364;-75
2022/06/30 03:43:22;;;;;;;23.10;9.23;;;;;;;35.10;43.43;100963.09;6135272;23;20408;-75
2022/06/30 03:45:48;;;;;;;16.57;8.30;;;;;;;35.09;43.20;100969.56;6160205;23;20856;-75
2022/06/30 03:48:14;;;;;;;17.57;7.60;;;;;;;34.99;43.83;100979.38;6186565;23;20368;-74
2022/06/30 03:50:40;;;;;;;20.40;9.20;;;;;;;35.10;43.20;100984.66;6186353;23;20883;-75
2022/06/30 03:53:07;;;;;;;18.43;9.67;;;;;;;35.12;43.22;100979.78;6186783;23;20875;-75
2022/06/30 03:55:33;;;;;;;10.60;8.23;;;;;;;35.13;43.37;100976.00;6159605;23;20879;-75
2022/06/30 03:58:00;;;;;;;17.97;7.40;;;;;;;35.12;43.04;100986.00;6159525;23;20787;-75
2022/06/30 04:00:26;;;;;;;16.63;9.40;;;;;;;35.11;42.75;100988.94;6159293;23;20399;-73
2022/06/30 04:02:52;;;;;;;15.57;8.47;;;;;;;35.04;43.25;100985.78;6159620;23;20406;-75
2022/06/30 04:05:19;;;;;;;13.37;7.60;;;;;;;35.01;43.51;100981.78;6159559;23;20442;-77
2022/06/30 04:07:46;;;;;;;13.57;8.07;;;;;;;35.09;43.43;100986.53;6159544;23;20372;-77
2022/06/30 04:10:14;;;;;;;14.30;10.33;;;;;;;35.08;43.50;100984.94;6159705;23;20379;-77
2022/06/30 04:12:41;;;;;;;14.10;7.37;;;;;;;35.03;43.54;100981.47;6159456;23;20482;-77
2022/06/30 04:15:08;;;;;;;18.23;6.90;;;;;;;34.95;43.36;100988.28;6186526;23;20356;-77
2022/06/30 04:17:34;;;;;;;13.27;7.20;;;;;;;34.89;43.32;101000.16;6159633;23;20531;-77
2022/06/30 04:20:02;;;;;;;11.60;6.70;;;;;;;34.87;43.48;100992.38;6186274;23;20439;-77
2022/06/30 04:22:28;;;;;;;12.97;7.90;;;;;;;34.83;43.31;100999.41;6159598;23;20375;-77
2022/06/30 04:24:54;;;;;;;24.03;7.87;;;;;;;34.93;43.26;101002.06;6186260;23;20360;-76
2022/06/30 04:27:21;;;;;;;16.77;8.03;;;;;;;34.94;43.28;101000.97;6186386;23;20443;-77
2022/06/30 04:29:47;;;;;;;13.40;7.70;;;;;;;34.91;43.44;101011.47;6159504;23;20919;-77
2022/06/30 04:34:58;;;;;;;23.33;9.30;;;;;;;34.87;43.78;101008.53;6186040;23;20840;-77
2022/06/30 04:37:24;;;;;;;18.63;10.77;;;;;;;34.96;43.79;101008.75;6159262;23;20380;-77
2022/06/30 04:41:23;;;;;;;17.33;10.87;;;;;;;35.04;43.72;101002.75;6159383;23;20432;-77
2022/06/30 04:42:36;;;;;;;25.93;9.87;;;;;;;35.09;43.35;101010.81;6185549;23;20357;-75
2022/06/30 04:45:03;;;;;;;24.57;11.10;;;;;;;35.15;43.08;101001.59;6159225;23;20471;-75
2022/06/30 04:47:29;;;;;;;19.73;9.37;;;;;;;35.14;43.17;101004.56;6186038;23;20391;-75
2022/06/30 04:49:55;;;;;;;17.60;7.80;;;;;;;35.11;43.55;101007.81;6159355;23;20380;-75
2022/06/30 04:52:21;;;;;;;17.00;9.50;;;;;;;35.16;43.11;101007.78;6159000;23;20420;-74
2022/06/30 04:54:47;;;;;;;36.23;12.53;;;;;;;35.09;43.25;101002.72;6186060;23;20364;-75
2022/06/30 04:57:13;;;;;;;25.57;15.53;;;;;;;35.14;43.27;101010.78;6159013;23;20834;-75
2022/06/30 04:59:40;;;;;;;24.67;12.27;;;;;;;35.19;43.31;101018.00;6158978;23;20380;-76
2022/06/30 05:02:06;;;;;;;14.07;10.10;;;;;;;35.12;43.45;101012.97;6159227;23;20373;-77
2022/06/30 05:04:32;;;;;;;18.60;10.23;;;;;;;35.09;43.41;101010.00;6159206;23;20486;-76
2022/06/30 05:06:58;;;;;;;24.20;11.30;;;;;;;35.07;43.43;101010.28;6186175;23;20365;-75
2022/06/30 05:09:24;;;;;;;22.10;12.33;;;;;;;34.99;43.85;101006.31;6185997;23;20443;-74
2022/06/30 05:11:50;;;;;;;18.87;10.80;;;;;;;35.15;43.79;101014.25;6158348;23;20447;-75
2022/06/30 05:14:17;;;;;;;20.30;9.97;;;;;;;35.24;43.28;101017.97;6159125;23;20753;-77
2022/06/30 05:16:43;;;;;;;20.37;13.23;;;;;;;35.32;43.29;101016.56;6159043;23;20388;-77
2022/06/30 05:19:09;;;;;;;20.67;12.83;;;;;;;35.41;43.33;101022.91;6158985;23;20489;-77
2022/06/30 05:21:36;;;;;;;24.50;15.40;;;;;;;35.42;43.31;101022.69;6186133;23;20375;-75
2022/06/30 05:26:47;;;;;;;17.67;11.20;;;;;;;35.32;43.14;101022.75;6163199;23;20368;-75
2022/06/30 05:29:13;;;;;;;21.00;12.03;;;;;;;35.24;43.30;101028.75;6158789;23;20380;-75
2022/06/30 05:31:40;;;;;;;24.30;19.23;;;;;;;35.25;43.53;101036.56;6158609;23;20436;-74
2022/06/30 05:34:07;;;;;;;27.40;18.23;;;;;;;35.36;43.13;101039.16;6158725;23;20467;-74
2022/06/30 05:36:33;;;;;;;33.33;20.70;;;;;;;35.38;43.12;101043.19;6158662;23;20388;-74
2022/06/30 05:38:59;;;;;;;21.10;13.50;;;;;;;35.32;43.58;101044.31;6158496;23;20412;-74
2022/06/30 05:41:25;;;;;;;27.17;15.03;;;;;;;35.26;43.76;101048.16;6158205;23;20467;-74
2022/06/30 05:43:52;;;;;;;29.80;15.83;;;;;;;35.23;43.89;101046.00;6158411;23;20408;-75
2022/06/30 05:46:19;;;;;;;21.20;15.77;;;;;;;35.28;43.90;101046.78;6158155;23;20467;-73
2022/06/30 05:48:47;;;;;;;34.73;18.43;;;;;;;35.35;43.41;101046.44;6158124;23;20854;-74
2022/06/30 05:51:13;;;;;;;23.83;18.97;;;;;;;35.35;43.38;101051.03;6158329;23;20445;-74
2022/06/30 05:53:39;;;;;;;31.00;20.27;;;;;;;35.38;43.60;101055.88;6134102;23;20384;-75
2022/06/30 05:56:05;;;;;;;25.13;17.30;;;;;;;35.35;43.30;101048.34;6158336;23;20443;-75
2022/06/30 05:58:32;;;;;;;23.50;18.80;;;;;;;35.40;43.16;101051.00;6158358;23;20893;-74
2022/06/30 06:00:58;;;;;;;25.60;19.67;;;;;;;35.31;43.45;101058.91;6158558;23;20380;-77
2022/06/30 06:03:24;;;;;;;30.67;20.33;;;;;;;35.31;43.77;101056.19;6158655;23;20890;-75
2022/06/30 06:05:50;;;;;;;30.70;21.27;;;;;;;35.26;43.59;101062.44;6158399;23;20380;-74
2022/06/30 06:08:16;;;;;;;37.80;24.73;;;;;;;35.32;44.05;101065.91;6185489;23;20368;-74
2022/06/30 06:10:42;;;;;;;38.63;24.70;;;;;;;35.34;43.81;101068.31;6158376;23;20414;-73
2022/06/30 06:13:11;;;;;;;40.77;26.87;;;;;;;35.43;43.41;101069.34;6158503;23;20416;-74
2022/06/30 06:15:37;;;;;;;44.80;27.60;;;;;;;35.50;43.46;101078.72;6158258;23;20407;-74
2022/06/30 06:18:04;;;;;;;51.73;28.90;;;;;;;35.48;43.59;101077.38;6158346;23;20380;-74
2022/06/30 06:20:30;;;;;;;28.77;23.80;;;;;;;35.51;43.46;101091.09;6158187;23;20538;-75
2022/06/30 06:22:56;;;;;;;36.93;23.60;;;;;;;35.56;43.59;101081.38;6158004;23;20372;-72
2022/06/30 06:25:23;;;;;;;45.30;25.30;;;;;;;35.56;43.81;101092.16;6158098;23;20387;-73
2022/06/30 06:30:34;;;;;;;40.80;24.57;;;;;;;35.51;43.60;101093.00;6184675;23;20879;-75
2022/06/30 06:33:01;;;;;;;35.93;22.83;;;;;;;35.57;43.67;101093.75;6185010;23;20474;-75
2022/06/30 06:35:27;;;;;;;44.77;33.67;;;;;;;35.58;43.82;101095.38;6158218;23;20411;-72
2022/06/30 06:37:53;;;;;;;59.80;44.27;;;;;;;35.51;43.91;101106.50;6185197;23;20357;-75
2022/06/30 06:40:20;;;;;;;50.97;34.20;;;;;;;35.36;43.70;101110.09;6158145;23;20380;-75
2022/06/30 06:42:46;;;;;;;39.03;32.50;;;;;;;35.43;43.64;101109.81;6158281;23;20403;-75
2022/06/30 06:45:12;;;;;;;49.03;38.70;;;;;;;35.34;44.32;101112.25;6158245;23;20384;-75
2022/06/30 11:37:30;;;;;;;14.17;6.03;;;;;;;36.09;45.46;101255.00;6105988;22;2293896;-67
2022/06/30 11:40:06;;;;;;;13.27;5.03;;;;;;;36.40;45.28;101252.84;6246139;23;20218;-68
2022/06/30 11:42:33;;;;;;;9.73;4.70;;;;;;;36.32;45.61;101250.72;6219049;23;20408;-68
2022/06/30 11:45:01;;;;;;;14.40;4.43;;;;;;;36.41;45.04;101251.75;6194416;23;20740;-68
2022/06/30 11:47:29;;;;;;;15.23;3.90;;;;;;;36.41;44.33;101243.66;6218804;23;20448;-68
2022/06/30 11:49:57;;;;;;;14.17;5.37;;;;;;;36.30;44.84;101244.81;6218544;23;20383;-68
2022/06/30 11:52:33;;;;;;;14.70;5.67;;;;;;;36.17;45.38;101243.59;6219040;23;20399;-68
2022/06/30 11:55:02;;;;;;;10.80;4.50;;;;;;;36.28;45.82;101244.31;6194492;23;20768;-68
2022/06/30 11:57:34;;;;;;;18.50;4.90;;;;;;;36.30;44.72;101242.13;6219096;23;20379;-66
2022/06/30 12:00:09;;;;;;;18.67;4.80;;;;;;;36.62;44.92;101232.63;6246139;23;20356;-67
2022/06/30 12:02:39;;;;;;;12.33;4.40;;;;;;;36.29;45.13;101233.22;6245560;23;20361;-67
2022/06/30 12:05:09;;;;;;;15.43;5.10;;;;;;;36.44;45.07;101232.25;6219522;23;20390;-68
2022/06/30 12:07:38;;;;;;;10.13;4.43;;;;;;;36.55;45.24;101230.25;6245543;23;20407;-68
2022/06/30 12:10:06;;;;;;;12.40;5.10;;;;;;;36.65;45.20;101224.75;6218736;23;20838;-67
2022/06/30 12:12:35;;;;;;;9.63;3.90;;;;;;;36.70;44.96;101218.44;6193844;23;20374;-67
2022/06/30 12:15:05;;;;;;;13.20;4.70;;;;;;;36.85;45.27;101220.97;6217324;23;20379;-67
2022/06/30 12:17:34;;;;;;;13.27;5.47;;;;;;;36.87;44.73;101216.09;6218614;23;20525;-68
2022/06/30 12:20:01;;;;;;;9.30;5.03;;;;;;;36.79;44.35;101219.44;6218666;23;20466;-69
2022/06/30 12:22:27;;;;;;;17.50;6.60;;;;;;;36.75;43.47;101218.41;6218639;23;20820;-69
2022/06/30 12:24:54;;;;;;;21.13;5.43;;;;;;;36.61;43.90;101221.00;6218749;23;20431;-67
2022/06/30 17:25:42;;;;;;;19.63;7.33;;;;;;;34.86;49.12;101079.69;6093149;22;2055335;-71
2022/06/30 17:28:08;;;;;;;17.63;10.07;;;;;;;35.04;49.04;101078.25;6282844;22;20361;-70
2022/06/30 17:30:34;;;;;;;19.77;8.30;;;;;;;35.08;48.59;101076.59;6284672;22;20342;-70
2022/06/30 17:33:01;;;;;;;15.43;8.07;;;;;;;35.21;48.53;101094.03;6282397;22;20403;-71
2022/06/30 17:35:27;;;;;;;19.23;7.67;;;;;;;35.32;48.34;101087.47;6282785;22;20365;-70
2022/06/30 17:37:54;;;;;;;19.97;9.43;;;;;;;35.41;47.69;101093.06;6257170;22;20527;-70
2022/06/30 17:40:20;;;;;;;37.83;11.97;;;;;;;35.22;48.10;101088.34;6284743;22;20418;-71
2022/06/30 17:42:46;;;;;;;24.00;9.03;;;;;;;35.42;47.52;101102.75;6282133;22;20445;-71
2022/06/30 17:45:12;;;;;;;20.07;8.40;;;;;;;35.46;47.72;101109.22;6281956;22;20427;-71
2022/06/30 17:47:38;;;;;;;21.70;8.93;;;;;;;35.72;46.76;101096.31;6282351;22;20734;-68
2022/06/30 17:50:05;;;;;;;18.77;9.50;;;;;;;35.55;47.02;101098.66;6256424;22;20737;-71
2022/06/30 17:52:32;;;;;;;26.77;9.43;;;;;;;35.25;47.71;101103.19;6282015;22;20376;-68
2022/06/30 17:54:59;;;;;;;22.17;9.70;;;;;;;35.33;47.32;101116.06;6282365;22;20883;-71
2022/06/30 17:57:25;;;;;;;20.00;10.20;;;;;;;35.02;47.22;101109.28;6282324;22;20464;-68
2022/06/30 17:59:51;;;;;;;15.07;8.63;;;;;;;35.32;47.21;101110.94;6282358;22;20419;-69
2022/06/30 18:02:17;;;;;;;24.53;11.30;;;;;;;35.30;46.71;101107.72;6282082;22;20376;-71
2022/06/30 18:04:44;;;;;;;25.43;9.60;;;;;;;35.16;46.93;101100.25;6284295;22;20361;-71
2022/06/30 18:12:39;;;;;;;29.90;9.67;;;;;;;35.19;47.14;101112.41;6281412;22;20352;-70
2022/06/30 18:15:05;;;;;;;27.87;8.43;;;;;;;35.14;47.27;101113.22;6281707;22;20833;-69
2022/06/30 18:17:31;;;;;;;19.60;8.27;;;;;;;34.90;47.38;101114.97;6281826;22;20397;-71
2022/06/30 18:19:58;;;;;;;32.20;8.83;;;;;;;34.98;47.80;101115.22;6279441;22;20402;-71
2022/06/30 18:22:26;;;;;;;25.83;9.23;;;;;;;35.13;47.23;101111.63;6275302;22;20373;-71
2022/06/30 18:24:54;;;;;;;20.13;9.87;;;;;;;35.21;47.27;101123.69;6275162;22;20424;-68
2022/06/30 18:27:20;;;;;;;33.70;11.10;;;;;;;35.26;46.78;101120.97;6274866;22;20432;-68
2022/06/30 18:29:46;;;;;;;20.97;8.30;;;;;;;35.26;46.63;101123.66;6249512;22;20457;-68
2022/06/30 18:32:12;;;;;;;26.03;8.90;;;;;;;35.41;46.92;101118.13;6275137;22;20772;-70
2022/06/30 18:34:38;;;;;;;22.73;10.93;;;;;;;35.30;47.04;101116.63;6274755;22;20393;-70
2022/06/30 18:37:06;;;;;;;18.20;8.60;;;;;;;35.53;46.35;101121.28;6274765;22;20374;-69
2022/06/30 18:39:32;;;;;;;24.07;9.07;;;;;;;35.48;46.10;101126.75;6275879;22;20413;-69
2022/06/30 18:41:59;;;;;;;20.27;11.20;;;;;;;35.66;45.83;101121.72;6275098;22;20420;-69
2022/06/30 18:44:26;;;;;;;16.83;9.27;;;;;;;35.44;46.08;101125.72;6275261;22;20377;-69
2022/06/30 18:46:52;;;;;;;19.00;8.80;;;;;;;35.36;46.50;101120.91;6274837;22;20381;-71
2022/06/30 18:49:19;;;;;;;24.13;10.30;;;;;;;35.37;46.66;101117.09;6275721;22;20755;-71
2022/06/30 18:51:49;;;;;;;16.40;7.13;;;;;;;35.19;46.85;101129.38;6276761;22;20362;-70
2022/06/30 18:54:16;;;;;;;25.47;8.37;;;;;;;35.42;46.77;101132.44;6275206;22;20401;-74
2022/06/30 18:56:42;;;;;;;19.50;9.50;;;;;;;35.37;46.77;101129.78;6277309;22;20365;-71
2022/06/30 18:59:10;;;;;;;21.53;8.40;;;;;;;35.14;46.95;101142.09;6249590;22;20422;-70
2022/06/30 19:01:36;;;;;;;18.40;9.57;;;;;;;35.26;47.13;101139.84;6275229;22;20412;-69
2022/06/30 19:04:02;;;;;;;25.33;10.20;;;;;;;35.51;46.07;101134.28;6273683;22;20397;-72
2022/06/30 19:06:28;;;;;;;38.63;12.10;;;;;;;35.31;46.83;101139.81;6275823;22;20362;-71
2022/06/30 19:08:54;;;;;;;27.27;9.93;;;;;;;35.33;46.79;101147.63;6277312;22;20350;-71
2022/06/30 19:11:21;;;;;;;22.07;11.77;;;;;;;35.26;46.73;101142.53;6275132;22;20428;-71
2022/06/30 19:13:48;;;;;;;29.53;10.77;;;;;;;35.50;46.96;101146.16;6277163;22;20807;-69
2022/06/30 19:16:14;;;;;;;28.93;13.13;;;;;;;35.51;46.29;101142.38;6276899;22;20810;-69
2022/06/30 19:18:41;;;;;;;21.20;9.87;;;;;;;35.55;46.23;101142.63;6274984;22;20448;-69
2022/06/30 19:21:10;;;;;;;22.20;10.93;;;;;;;35.50;46.02;101143.47;6276616;22;20877;-69
2022/06/30 19:23:38;;;;;;;24.10;10.13;;;;;;;35.36;46.44;101131.69;6274796;22;20384;-68
2022/06/30 19:26:09;;;;;;;20.50;11.60;;;;;;;35.43;46.43;101144.88;6249762;22;20444;-69
2022/06/30 19:28:39;;;;;;;24.90;12.70;;;;;;;35.29;46.68;101147.34;6275151;22;20830;-69
2022/06/30 19:31:11;;;;;;;17.50;8.63;;;;;;;35.07;47.04;101155.06;6274831;22;20413;-69
2022/06/30 19:33:39;;;;;;;20.10;9.27;;;;;;;35.14;46.83;101150.19;6274634;22;20370;-69
2022/06/30 19:36:07;;;;;;;20.83;10.57;;;;;;;35.19;47.28;101155.53;6275531;22;20373;-69
2022/06/30 19:38:33;;;;;;;21.80;9.90;;;;;;;35.42;46.59;101152.16;6223475;22;20425;-69
2022/06/30 19:41:00;;;;;;;24.43;11.40;;;;;;;35.57;46.28;101153.94;6249416;22;20469;-69
2022/06/30 19:43:28;;;;;;;30.43;11.17;;;;;;;35.43;46.55;101166.47;6274800;22;20416;-69
2022/06/30 19:45:55;;;;;;;29.27;10.37;;;;;;;34.93;47.52;101163.78;6249575;22;20393;-69
2022/06/30 19:48:22;;;;;;;28.97;8.87;;;;;;;35.18;47.15;101164.72;6250259;22;20350;-68
2022/06/30 19:50:48;;;;;;;22.50;8.17;;;;;;;35.25;46.83;101162.50;6274837;22;20392;-69
2022/06/30 19:53:15;;;;;;;30.40;11.53;;;;;;;35.40;46.35;101161.59;6249298;22;20873;-69
2022/06/30 19:55:41;;;;;;;29.63;12.67;;;;;;;35.55;46.04;101158.00;6274869;22;20922;-69
2022/06/30 19:58:09;;;;;;;17.43;12.30;;;;;;;35.66;45.69;101157.63;6249378;22;20761;-69
2022/06/30 20:00:35;;;;;;;24.87;11.83;;;;;;;35.79;45.62;101169.66;6274818;22;20378;-69
2022/06/30 20:05:45;;;;;;;16.93;9.27;;;;;;;35.42;45.44;101170.19;6276351;22;20345;-69
2022/06/30 20:13:41;;;;;;;16.30;9.37;;;;;;;35.68;45.62;101176.25;6275257;22;20408;-69
2022/06/30 20:16:12;;;;;;;17.53;8.13;;;;;;;35.58;45.65;101179.00;6274983;22;20401;-69
2022/06/30 20:18:40;;;;;;;17.60;8.17;;;;;;;35.49;45.35;101185.03;6274470;22;20448;-69
2022/06/30 20:21:08;;;;;;;16.63;8.47;;;;;;;35.68;45.13;101193.25;6274614;22;20405;-69
2022/06/30 20:23:34;;;;;;;15.30;7.83;;;;;;;35.30;46.25;101192.16;6274345;22;20370;-68
2022/06/30 20:26:01;;;;;;;21.47;10.13;;;;;;;35.31;45.98;101201.03;6283498;22;20432;-69
2022/06/30 20:28:27;;;;;;;18.43;6.40;;;;;;;35.35;46.35;101204.78;6279562;22;20916;-69
2022/06/30 20:30:54;;;;;;;18.10;9.30;;;;;;;35.14;46.40;101204.09;6279551;22;20921;-69
2022/06/30 20:33:20;;;;;;;13.30;8.30;;;;;;;35.14;46.63;101214.88;6253894;22;20717;-70
2022/06/30 20:35:47;;;;;;;14.83;9.03;;;;;;;35.30;46.45;101208.34;6253333;22;20377;-72
2022/06/30 20:38:13;;;;;;;16.07;10.03;;;;;;;35.51;46.05;101212.53;6304661;22;20867;-72
2022/06/30 20:40:40;;;;;;;15.97;9.60;;;;;;;35.70;46.02;101212.66;6278275;22;20411;-70
2022/06/30 20:43:06;;;;;;;12.80;10.10;;;;;;;35.85;45.29;101219.81;6278074;22;20469;-69
2022/06/30 20:45:32;;;;;;;21.33;11.13;;;;;;;35.88;45.48;101221.16;6306278;22;20353;-70
2022/06/30 20:53:27;;;;;;;15.73;11.97;;;;;;;36.00;44.61;101221.59;6306475;22;20352;-73
2022/06/30 20:55:53;;;;;;;28.57;13.27;;;;;;;35.95;45.23;101222.44;6306815;22;20376;-73
2022/06/30 20:58:19;;;;;;;33.53;13.57;;;;;;;35.87;45.62;101217.63;6278930;22;20497;-73
2022/06/30 21:00:46;;;;;;;18.67;13.63;;;;;;;35.87;45.46;101217.63;6278952;22;20845;-73
2022/06/30 21:03:12;;;;;;;27.97;15.63;;;;;;;35.78;45.34;101222.81;6279009;22;20397;-73
2022/06/30 21:05:38;;;;;;;29.30;16.67;;;;;;;35.82;45.31;101228.47;6306979;22;20360;-73
2022/06/30 21:08:04;;;;;;;18.77;14.67;;;;;;;35.78;45.62;101230.91;6279341;22;20393;-73
2022/06/30 21:10:31;;;;;;;25.17;15.10;;;;;;;35.86;45.25;101226.84;6279429;22;20840;-72
2022/06/30 21:12:57;;;;;;;20.20;16.43;;;;;;;35.87;45.89;101233.84;6280542;22;20364;-73
2022/06/30 21:15:23;;;;;;;35.07;16.80;;;;;;;35.84;45.06;101231.69;6279822;22;20400;-70
2022/06/30 21:17:49;;;;;;;26.75;15.70;;;;;;;35.78;45.47;101239.03;6279434;22;20408;-71
2022/06/30 21:20:15;;;;;;;34.47;15.93;;;;;;;35.73;45.86;101249.06;6279303;22;20705;-73
2022/06/30 21:22:42;;;;;;;27.13;14.87;;;;;;;35.77;45.20;101248.22;6279034;22;20785;-73
2022/06/30 21:25:08;;;;;;;24.57;17.57;;;;;;;35.76;45.58;101256.59;6278388;22;20434;-73
2022/06/30 21:27:35;;;;;;;21.80;15.30;;;;;;;35.79;45.55;101261.44;6306167;22;20425;-72
2022/06/30 21:30:04;;;;;;;25.87;14.60;;;;;;;35.64;45.40;101256.16;6279226;22;20455;-73
2022/06/30 21:32:30;;;;;;;19.37;14.07;;;;;;;35.52;45.87;101254.59;6279190;22;20383;-73